sensor_id;sensor_type;location;lat;lon;timestamp;pressure;altitude;pressure_sealevel;temperature;humidity
46942;BME280;32676;52.630;4.896;2022-08-06T00:01:55;99132.16;;;14.94;68.60
46942;BME280;32676;52.630;4.896;2022-08-06T00:04:22;99120.97;;;14.90;68.86
46942;BME280;32676;52.630;4.896;2022-08-06T00:06:48;99100.06;;;14.87;68.97
46942;BME280;32676;52.630;4.896;2022-08-06T00:09:15;99084.69;;;14.81;69.22
46942;BME280;32676;52.630;4.896;2022-08-06T00:11:41;99070.00;;;14.77;69.54
46942;BME280;32676;52.630;4.896;2022-08-06T00:14:08;99055.34;;;14.73;69.70
46942;BME280;32676;52.630;4.896;2022-08-06T00:16:35;99059.19;;;14.69;69.63
46942;BME280;32676;52.630;4.896;2022-08-06T00:19:03;99058.94;;;14.72;69.91
46942;BME280;32676;52.630;4.896;2022-08-06T00:21:30;99061.59;;;14.72;69.59
46942;BME280;32676;52.630;4.896;2022-08-06T00:23:56;99066.88;;;14.72;69.90
46942;BME280;32676;52.630;4.896;2022-08-06T00:26:23;99062.53;;;14.71;69.73
46942;BME280;32676;52.630;4.896;2022-08-06T00:28:50;99057.50;;;14.68;69.75
46942;BME280;32676;52.630;4.896;2022-08-06T00:31:16;99059.41;;;14.66;69.82
46942;BME280;32676;52.630;4.896;2022-08-06T00:33:43;99052.47;;;14.65;69.93
46942;BME280;32676;52.630;4.896;2022-08-06T00:36:11;99068.06;;;14.68;69.80
46942;BME280;32676;52.630;4.896;2022-08-06T00:38:37;99068.06;;;14.68;69.89
46942;BME280;32676;52.630;4.896;2022-08-06T00:41:04;99065.56;;;14.66;69.61
46942;BME280;32676;52.630;4.896;2022-08-06T00:43:30;99057.03;;;14.63;69.43
46942;BME280;32676;52.630;4.896;2022-08-06T00:45:57;99060.50;;;14.63;69.41
46942;BME280;32676;52.630;4.896;2022-08-06T00:48:24;99061.34;;;14.64;69.29
46942;BME280;32676;52.630;4.896;2022-08-06T00:50:51;99077.19;;;14.64;69.36
46942;BME280;32676;52.630;4.896;2022-08-06T00:53:18;99085.84;;;14.66;68.92
46942;BME280;32676;52.630;4.896;2022-08-06T00:55:45;99099.78;;;14.68;68.86
46942;BME280;32676;52.630;4.896;2022-08-06T00:58:11;99110.13;;;14.71;68.85
46942;BME280;32676;52.630;4.896;2022-08-06T01:00:38;99097.28;;;14.66;68.55
46942;BME280;32676;52.630;4.896;2022-08-06T01:03:04;99095.59;;;14.65;68.77
46942;BME280;32676;52.630;4.896;2022-08-06T01:05:31;99077.78;;;14.56;68.66
46942;BME280;32676;52.630;4.896;2022-08-06T01:07:57;99081.06;;;14.59;68.94
46942;BME280;32676;52.630;4.896;2022-08-06T01:10:25;99073.31;;;14.56;68.86
46942;BME280;32676;52.630;4.896;2022-08-06T01:12:52;99069.00;;;14.55;69.01
46942;BME280;32676;52.630;4.896;2022-08-06T01:15:18;99070.06;;;14.53;69.45
46942;BME280;32676;52.630;4.896;2022-08-06T01:17:49;99063.13;;;14.52;69.58
46942;BME280;32676;52.630;4.896;2022-08-06T01:20:23;99060.59;;;14.50;69.83
46942;BME280;32676;52.630;4.896;2022-08-06T01:23:05;99045.19;;;14.44;69.40
46942;BME280;32676;52.630;4.896;2022-08-06T01:25:46;99028.72;;;14.40;69.76
46942;BME280;32676;52.630;4.896;2022-08-06T01:28:25;99017.53;;;14.37;70.01
46942;BME280;32676;52.630;4.896;2022-08-06T01:30:56;99000.25;;;14.33;70.16
46942;BME280;32676;52.630;4.896;2022-08-06T01:33:26;99000.50;;;14.30;70.24
46942;BME280;32676;52.630;4.896;2022-08-06T01:35:59;98995.22;;;14.30;70.06
46942;BME280;32676;52.630;4.896;2022-08-06T01:38:31;98995.47;;;14.27;70.00
46942;BME280;32676;52.630;4.896;2022-08-06T01:41:01;98989.44;;;14.25;70.45
46942;BME280;32676;52.630;4.896;2022-08-06T01:43:31;98978.16;;;14.23;70.39
46942;BME280;32676;52.630;4.896;2022-08-06T01:45:59;98995.69;;;14.24;70.36
46942;BME280;32676;52.630;4.896;2022-08-06T01:48:27;98986.09;;;14.23;70.81
46942;BME280;32676;52.630;4.896;2022-08-06T01:51:01;98977.69;;;14.17;70.70
46942;BME280;32676;52.630;4.896;2022-08-06T01:53:30;98966.41;;;14.15;70.97
46942;BME280;32676;52.630;4.896;2022-08-06T01:55:59;98956.06;;;14.12;71.04
46942;BME280;32676;52.630;4.896;2022-08-06T01:58:30;98947.41;;;14.10;70.94
46942;BME280;32676;52.630;4.896;2022-08-06T02:01:01;98948.47;;;14.08;71.24
46942;BME280;32676;52.630;4.896;2022-08-06T02:03:31;98943.19;;;14.08;70.90
46942;BME280;32676;52.630;4.896;2022-08-06T02:06:00;98941.63;;;14.05;71.28
46942;BME280;32676;52.630;4.896;2022-08-06T02:08:30;98944.28;;;14.05;70.98
46942;BME280;32676;52.630;4.896;2022-08-06T02:10:58;98947.88;;;14.04;71.36
46942;BME280;32676;52.630;4.896;2022-08-06T02:13:30;98958.22;;;14.07;71.50
46942;BME280;32676;52.630;4.896;2022-08-06T02:15:58;98954.84;;;14.05;71.12
46942;BME280;32676;52.630;4.896;2022-08-06T02:18:30;98975.03;;;14.06;71.03
46942;BME280;32676;52.630;4.896;2022-08-06T02:20:58;98974.88;;;14.08;71.23
46942;BME280;32676;52.630;4.896;2022-08-06T02:23:28;98983.66;;;14.08;70.93
46942;BME280;32676;52.630;4.896;2022-08-06T02:25:56;98981.97;;;14.07;70.85
46942;BME280;32676;52.630;4.896;2022-08-06T02:28:25;98981.97;;;14.07;70.89
46942;BME280;32676;52.630;4.896;2022-08-06T02:30:56;98982.94;;;14.06;70.81
46942;BME280;32676;52.630;4.896;2022-08-06T02:33:24;98979.56;;;14.04;71.00
46942;BME280;32676;52.630;4.896;2022-08-06T02:35:54;98966.84;;;13.98;71.33
46942;BME280;32676;52.630;4.896;2022-08-06T02:38:27;98950.28;;;13.96;71.27
46942;BME280;32676;52.630;4.896;2022-08-06T02:40:57;98932.50;;;13.87;71.50
46942;BME280;32676;52.630;4.896;2022-08-06T02:43:32;98944.50;;;13.91;71.76
46942;BME280;32676;52.630;4.896;2022-08-06T02:46:07;98937.53;;;13.90;71.90
46942;BME280;32676;52.630;4.896;2022-08-06T02:48:39;98945.44;;;13.90;71.87
46942;BME280;32676;52.630;4.896;2022-08-06T02:51:10;98949.78;;;13.91;72.05
46942;BME280;32676;52.630;4.896;2022-08-06T02:53:43;98948.22;;;13.88;71.82
46942;BME280;32676;52.630;4.896;2022-08-06T02:56:11;98947.38;;;13.88;72.07
46942;BME280;32676;52.630;4.896;2022-08-06T02:58:42;98950.97;;;13.87;71.99
46942;BME280;32676;52.630;4.896;2022-08-06T03:01:15;98937.06;;;13.85;71.83
46942;BME280;32676;52.630;4.896;2022-08-06T03:03:46;98948.34;;;13.87;71.80
46942;BME280;32676;52.630;4.896;2022-08-06T03:06:15;98957.91;;;13.88;71.73
46942;BME280;32676;52.630;4.896;2022-08-06T03:08:42;98957.91;;;13.88;71.93
46942;BME280;32676;52.630;4.896;2022-08-06T03:11:11;98964.19;;;13.87;71.81
46942;BME280;32676;52.630;4.896;2022-08-06T03:13:41;98931.00;;;13.71;71.70
46942;BME280;32676;52.630;4.896;2022-08-06T03:16:12;98947.00;;;13.81;72.08
46942;BME280;32676;52.630;4.896;2022-08-06T03:18:41;98947.84;;;13.81;72.08
46942;BME280;32676;52.630;4.896;2022-08-06T03:21:09;98954.81;;;13.82;71.97
46942;BME280;32676;52.630;4.896;2022-08-06T03:23:37;98965.38;;;13.82;71.78
46942;BME280;32676;52.630;4.896;2022-08-06T03:26:05;98946.28;;;13.79;72.00
46942;BME280;32676;52.630;4.896;2022-08-06T03:28:33;98932.59;;;13.74;72.09
46942;BME280;32676;52.630;4.896;2022-08-06T03:31:01;98925.72;;;13.71;72.66
46942;BME280;32676;52.630;4.896;2022-08-06T03:33:30;98920.72;;;13.68;72.57
46942;BME280;32676;52.630;4.896;2022-08-06T03:35:59;98919.00;;;13.67;73.04
46942;BME280;32676;52.630;4.896;2022-08-06T03:38:28;98909.53;;;13.65;72.86
46942;BME280;32676;52.630;4.896;2022-08-06T03:40:56;98902.78;;;13.60;72.82
46942;BME280;32676;52.630;4.896;2022-08-06T03:43:23;98895.03;;;13.59;73.24
46942;BME280;32676;52.630;4.896;2022-08-06T03:45:52;98882.88;;;13.56;73.21
46942;BME280;32676;52.630;4.896;2022-08-06T03:48:24;98889.97;;;13.56;73.18
46942;BME280;32676;52.630;4.896;2022-08-06T03:50:55;98886.34;;;13.57;73.31
46942;BME280;32676;52.630;4.896;2022-08-06T03:53:25;98881.06;;;13.46;73.00
46942;BME280;32676;52.630;4.896;2022-08-06T03:55:54;98900.53;;;13.56;72.86
46942;BME280;32676;52.630;4.896;2022-08-06T03:58:23;98891.88;;;13.54;73.15
46942;BME280;32676;52.630;4.896;2022-08-06T04:00:53;98892.94;;;13.51;73.09
46942;BME280;32676;52.630;4.896;2022-08-06T04:03:22;98885.13;;;13.50;73.08
46942;BME280;32676;52.630;4.896;2022-08-06T04:05:49;98878.31;;;13.47;73.34
46942;BME280;32676;52.630;4.896;2022-08-06T04:08:18;98860.91;;;13.44;73.35
46942;BME280;32676;52.630;4.896;2022-08-06T04:10:46;98859.69;;;13.37;73.41
46942;BME280;32676;52.630;4.896;2022-08-06T04:13:15;98843.00;;;13.37;73.47
46942;BME280;32676;52.630;4.896;2022-08-06T04:15:42;98837.13;;;13.33;74.08
46942;BME280;32676;52.630;4.896;2022-08-06T04:18:12;98825.94;;;13.30;74.12
46942;BME280;32676;52.630;4.896;2022-08-06T04:20:42;98811.19;;;13.27;74.56
46942;BME280;32676;52.630;4.896;2022-08-06T04:23:10;98798.38;;;13.22;74.75
46942;BME280;32676;52.630;4.896;2022-08-06T04:25:39;98797.50;;;13.22;75.15
46942;BME280;32676;52.630;4.896;2022-08-06T04:28:06;98780.25;;;13.18;74.89
46942;BME280;32676;52.630;4.896;2022-08-06T04:30:35;98777.13;;;13.13;75.31
46942;BME280;32676;52.630;4.896;2022-08-06T04:33:04;98767.03;;;13.06;75.03
46942;BME280;32676;52.630;4.896;2022-08-06T04:35:31;98782.16;;;13.16;75.15
46942;BME280;32676;52.630;4.896;2022-08-06T04:37:58;98790.91;;;13.16;75.26
46942;BME280;32676;52.630;4.896;2022-08-06T04:40:27;98812.63;;;13.20;75.45
46942;BME280;32676;52.630;4.896;2022-08-06T04:42:56;98816.94;;;13.21;75.10
46942;BME280;32676;52.630;4.896;2022-08-06T04:45:23;98836.13;;;13.23;74.83
46942;BME280;32676;52.630;4.896;2022-08-06T04:47:51;98844.75;;;13.25;75.05
46942;BME280;32676;52.630;4.896;2022-08-06T04:50:18;98866.47;;;13.29;74.90
46942;BME280;32676;52.630;4.896;2022-08-06T04:52:44;98866.59;;;13.27;74.84
46942;BME280;32676;52.630;4.896;2022-08-06T04:55:11;98887.38;;;13.32;74.64
46942;BME280;32676;52.630;4.896;2022-08-06T04:57:38;98896.03;;;13.34;75.01
46942;BME280;32676;52.630;4.896;2022-08-06T05:00:07;98907.19;;;13.37;74.62
46942;BME280;32676;52.630;4.896;2022-08-06T05:02:33;98919.41;;;13.38;74.69
46942;BME280;32676;52.630;4.896;2022-08-06T05:05:00;98943.66;;;13.43;74.78
46942;BME280;32676;52.630;4.896;2022-08-06T05:07:28;98954.00;;;13.47;74.93
46942;BME280;32676;52.630;4.896;2022-08-06T05:09:56;98977.47;;;13.50;74.42
46942;BME280;32676;52.630;4.896;2022-08-06T05:12:27;98997.44;;;13.54;74.50
46942;BME280;32676;52.630;4.896;2022-08-06T05:14:55;99018.53;;;13.54;74.54
46942;BME280;32676;52.630;4.896;2022-08-06T05:17:32;99061.53;;;13.67;74.68
46942;BME280;32676;52.630;4.896;2022-08-06T05:20:02;99088.34;;;13.74;74.22
46942;BME280;32676;52.630;4.896;2022-08-06T05:22:31;99127.38;;;13.81;74.37
46942;BME280;32676;52.630;4.896;2022-08-06T05:24:59;99177.59;;;13.93;73.94
46942;BME280;32676;52.630;4.896;2022-08-06T05:27:26;99236.50;;;14.06;73.94
46942;BME280;32676;52.630;4.896;2022-08-06T05:29:52;99312.72;;;14.24;73.65
46942;BME280;32676;52.630;4.896;2022-08-06T05:32:19;99382.00;;;14.40;73.09
46942;BME280;32676;52.630;4.896;2022-08-06T05:34:47;99459.19;;;14.58;73.00
46942;BME280;32676;52.630;4.896;2022-08-06T05:37:13;99531.28;;;14.73;72.19
46942;BME280;32676;52.630;4.896;2022-08-06T05:39:40;99614.41;;;14.94;71.62
46942;BME280;32676;52.630;4.896;2022-08-06T05:42:06;99684.66;;;15.11;71.27
46942;BME280;32676;52.630;4.896;2022-08-06T05:44:33;99746.69;;;15.20;70.70
46942;BME280;32676;52.630;4.896;2022-08-06T05:47:03;99835.00;;;15.45;70.03
46942;BME280;32676;52.630;4.896;2022-08-06T05:49:36;99920.16;;;15.64;69.15
46942;BME280;32676;52.630;4.896;2022-08-06T05:52:09;99990.69;;;15.80;69.11
46942;BME280;32676;52.630;4.896;2022-08-06T05:54:41;100060.13;;;15.98;68.37
46942;BME280;32676;52.630;4.896;2022-08-06T05:57:11;100125.56;;;16.10;67.90
46942;BME280;32676;52.630;4.896;2022-08-06T05:59:41;100174.25;;;16.22;67.35
46942;BME280;32676;52.630;4.896;2022-08-06T06:02:11;100223.06;;;16.32;67.21
46942;BME280;32676;52.630;4.896;2022-08-06T06:04:40;100257.88;;;16.40;66.68
46942;BME280;32676;52.630;4.896;2022-08-06T06:07:10;100285.22;;;16.41;66.05
46942;BME280;32676;52.630;4.896;2022-08-06T06:09:37;100318.06;;;16.53;65.82
46942;BME280;32676;52.630;4.896;2022-08-06T06:12:05;100354.69;;;16.60;65.93
46942;BME280;32676;52.630;4.896;2022-08-06T06:14:35;100393.03;;;16.69;65.38
46942;BME280;32676;52.630;4.896;2022-08-06T06:17:30;100449.66;;;16.82;65.62
46942;BME280;32676;52.630;4.896;2022-08-06T06:20:09;100481.34;;;16.85;65.71
46942;BME280;32676;52.630;4.896;2022-08-06T06:22:49;100521.31;;;16.97;65.55
46942;BME280;32676;52.630;4.896;2022-08-06T06:25:22;100566.59;;;17.08;65.63
46942;BME280;32676;52.630;4.896;2022-08-06T06:27:53;100610.22;;;17.18;65.28
46942;BME280;32676;52.630;4.896;2022-08-06T06:30:28;100655.53;;;17.30;65.15
46942;BME280;32676;52.630;4.896;2022-08-06T06:33:03;100693.94;;;17.38;64.46
46942;BME280;32676;52.630;4.896;2022-08-06T06:35:38;100753.44;;;17.50;64.22
46942;BME280;32676;52.630;4.896;2022-08-06T06:38:19;100807.69;;;17.60;63.78
46942;BME280;32676;52.630;4.896;2022-08-06T06:40:52;100848.78;;;17.69;62.97
46942;BME280;32676;52.630;4.896;2022-08-06T06:43:23;100887.06;;;17.81;63.19
46942;BME280;32676;52.630;4.896;2022-08-06T06:45:57;100952.78;;;17.93;63.43
46942;BME280;32676;52.630;4.896;2022-08-06T06:48:32;101012.44;;;18.03;63.08
46942;BME280;32676;52.630;4.896;2022-08-06T06:51:03;101044.53;;;18.15;61.85
46942;BME280;32676;52.630;4.896;2022-08-06T06:53:37;101085.69;;;18.23;61.44
46942;BME280;32676;52.630;4.896;2022-08-06T06:56:06;101139.78;;;18.38;60.71
46942;BME280;32676;52.630;4.896;2022-08-06T06:58:45;101178.38;;;18.46;60.08
46942;BME280;32676;52.630;4.896;2022-08-06T07:01:14;101213.38;;;18.54;59.40
46942;BME280;32676;52.630;4.896;2022-08-06T07:03:43;101267.78;;;18.64;58.55
46942;BME280;32676;52.630;4.896;2022-08-06T07:06:11;101310.69;;;18.74;57.90
46942;BME280;32676;52.630;4.896;2022-08-06T07:08:42;101345.75;;;18.82;57.70
46942;BME280;32676;52.630;4.896;2022-08-06T07:11:10;101359.81;;;18.84;57.04
46942;BME280;32676;52.630;4.896;2022-08-06T07:13:38;101397.44;;;18.94;56.54
46942;BME280;32676;52.630;4.896;2022-08-06T07:16:05;101447.31;;;19.06;56.60
46942;BME280;32676;52.630;4.896;2022-08-06T07:18:33;101467.44;;;19.12;55.79
46942;BME280;32676;52.630;4.896;2022-08-06T07:21:01;101509.78;;;19.16;55.55
46942;BME280;32676;52.630;4.896;2022-08-06T07:23:29;101567.41;;;19.33;55.76
46942;BME280;32676;52.630;4.896;2022-08-06T07:25:58;101600.69;;;19.42;55.12
46942;BME280;32676;52.630;4.896;2022-08-06T07:28:26;101640.22;;;19.50;54.81
46942;BME280;32676;52.630;4.896;2022-08-06T07:30:54;101644.72;;;19.49;54.69
46942;BME280;32676;52.630;4.896;2022-08-06T07:33:21;101650.03;;;19.49;54.11
46942;BME280;32676;52.630;4.896;2022-08-06T07:35:50;101673.59;;;19.57;53.95
46942;BME280;32676;52.630;4.896;2022-08-06T07:38:18;101691.16;;;19.61;54.08
46942;BME280;32676;52.630;4.896;2022-08-06T07:40:48;101695.44;;;19.64;53.93
46942;BME280;32676;52.630;4.896;2022-08-06T07:43:20;101725.38;;;19.69;53.74
46942;BME280;32676;52.630;4.896;2022-08-06T07:45:48;101737.63;;;19.73;53.68
46942;BME280;32676;52.630;4.896;2022-08-06T07:48:16;101744.69;;;19.74;54.14
46942;BME280;32676;52.630;4.896;2022-08-06T07:50:49;101667.41;;;19.56;54.39
46942;BME280;32676;52.630;4.896;2022-08-06T07:53:18;101591.25;;;19.36;54.19
46942;BME280;32676;52.630;4.896;2022-08-06T07:55:45;101530.72;;;19.23;54.84
46942;BME280;32676;52.630;4.896;2022-08-06T07:58:14;101475.41;;;19.12;55.00
46942;BME280;32676;52.630;4.896;2022-08-06T08:00:42;101421.97;;;18.99;55.59
46942;BME280;32676;52.630;4.896;2022-08-06T08:03:10;101394.84;;;18.92;56.04
46942;BME280;32676;52.630;4.896;2022-08-06T08:05:54;101423.69;;;19.00;55.90
46942;BME280;32676;52.630;4.896;2022-08-06T08:08:39;101478.94;;;19.12;55.50
46942;BME280;32676;52.630;4.896;2022-08-06T08:11:07;101519.31;;;19.21;55.10
46942;BME280;32676;52.630;4.896;2022-08-06T08:13:34;101575.53;;;19.32;54.74
46942;BME280;32676;52.630;4.896;2022-08-06T08:16:05;101558.75;;;19.30;54.46
46942;BME280;32676;52.630;4.896;2022-08-06T08:18:33;101529.03;;;19.22;54.55
46942;BME280;32676;52.630;4.896;2022-08-06T08:21:00;101546.53;;;19.26;54.30
46942;BME280;32676;52.630;4.896;2022-08-06T08:23:29;101610.59;;;19.40;57.89
46942;BME280;32676;52.630;4.896;2022-08-06T08:26:00;101707.84;;;19.65;58.80
46942;BME280;32676;52.630;4.896;2022-08-06T08:28:27;101806.13;;;19.88;58.43
46942;BME280;32676;52.630;4.896;2022-08-06T08:30:56;101908.19;;;20.08;57.66
46942;BME280;32676;52.630;4.896;2022-08-06T08:33:25;101995.44;;;20.23;55.44
46942;BME280;32676;52.630;4.896;2022-08-06T08:35:51;102093.56;;;20.51;55.34
46942;BME280;32676;52.630;4.896;2022-08-06T08:38:18;102171.00;;;20.69;55.78
46942;BME280;32676;52.630;4.896;2022-08-06T08:40:46;102226.34;;;20.83;54.91
46942;BME280;32676;52.630;4.896;2022-08-06T08:43:18;102324.22;;;21.03;54.46
46942;BME280;32676;52.630;4.896;2022-08-06T08:45:47;102380.47;;;21.17;53.05
46942;BME280;32676;52.630;4.896;2022-08-06T08:48:16;102370.81;;;21.15;49.58
46942;BME280;32676;52.630;4.896;2022-08-06T08:50:50;102359.34;;;21.13;48.75
46942;BME280;32676;52.630;4.896;2022-08-06T08:53:25;102376.16;;;21.15;49.40
46942;BME280;32676;52.630;4.896;2022-08-06T08:55:54;102439.50;;;21.30;49.90
46942;BME280;32676;52.630;4.896;2022-08-06T08:58:21;102487.91;;;21.43;49.79
46942;BME280;32676;52.630;4.896;2022-08-06T09:00:48;102539.13;;;21.53;48.43
46942;BME280;32676;52.630;4.896;2022-08-06T09:03:15;102583.28;;;21.61;47.57
46942;BME280;32676;52.630;4.896;2022-08-06T09:05:42;102631.69;;;21.74;46.43
46942;BME280;32676;52.630;4.896;2022-08-06T09:08:10;102631.50;;;21.77;45.39
46942;BME280;32676;52.630;4.896;2022-08-06T09:10:37;102640.34;;;21.79;45.13
46942;BME280;32676;52.630;4.896;2022-08-06T09:13:04;102665.94;;;21.85;45.76
46942;BME280;32676;52.630;4.896;2022-08-06T09:15:30;102708.13;;;21.97;46.73
46942;BME280;32676;52.630;4.896;2022-08-06T09:17:57;102687.88;;;21.92;45.85
46942;BME280;32676;52.630;4.896;2022-08-06T09:20:23;102598.78;;;21.72;45.19
46942;BME280;32676;52.630;4.896;2022-08-06T09:22:50;102528.34;;;21.54;45.88
46942;BME280;32676;52.630;4.896;2022-08-06T09:25:40;102532.53;;;21.60;47.02
46942;BME280;32676;52.630;4.896;2022-08-06T09:28:12;102430.41;;;21.34;46.93
46942;BME280;32676;52.630;4.896;2022-08-06T09:30:57;102347.44;;;21.18;46.45
46942;BME280;32676;52.630;4.896;2022-08-06T09:33:24;102316.63;;;21.11;46.04
46942;BME280;32676;52.630;4.896;2022-08-06T09:35:57;102343.91;;;21.18;46.56
46942;BME280;32676;52.630;4.896;2022-08-06T09:38:24;102377.41;;;21.25;45.49
46942;BME280;32676;52.630;4.896;2022-08-06T09:41:08;102415.28;;;21.33;45.05
46942;BME280;32676;52.630;4.896;2022-08-06T09:43:36;102486.56;;;21.52;45.85
46942;BME280;32676;52.630;4.896;2022-08-06T09:46:03;102485.78;;;21.50;44.97
46942;BME280;32676;52.630;4.896;2022-08-06T09:48:29;102488.59;;;21.46;43.83
46942;BME280;32676;52.630;4.896;2022-08-06T09:50:56;102514.72;;;21.59;43.70
46942;BME280;32676;52.630;4.896;2022-08-06T09:53:23;102564.94;;;21.71;45.75
46942;BME280;32676;52.630;4.896;2022-08-06T09:55:51;102568.53;;;21.70;45.64
46942;BME280;32676;52.630;4.896;2022-08-06T09:58:31;102632.06;;;21.84;46.26
46942;BME280;32676;52.630;4.896;2022-08-06T10:01:11;102669.78;;;21.97;46.15
46942;BME280;32676;52.630;4.896;2022-08-06T10:03:38;102709.38;;;22.08;44.83
46942;BME280;32676;52.630;4.896;2022-08-06T10:06:08;102741.19;;;22.14;43.75
46942;BME280;32676;52.630;4.896;2022-08-06T10:08:35;102762.41;;;22.18;42.99
46942;BME280;32676;52.630;4.896;2022-08-06T10:11:02;102756.13;;;22.19;40.77
46942;BME280;32676;52.630;4.896;2022-08-06T10:13:31;102810.97;;;22.30;42.39
46942;BME280;32676;52.630;4.896;2022-08-06T10:15:59;102842.63;;;22.39;43.14
46942;BME280;32676;52.630;4.896;2022-08-06T10:18:31;102876.06;;;22.49;43.53
46942;BME280;32676;52.630;4.896;2022-08-06T10:21:03;102874.31;;;22.48;42.97
46942;BME280;32676;52.630;4.896;2022-08-06T10:23:32;102784.47;;;22.23;42.05
46942;BME280;32676;52.630;4.896;2022-08-06T10:26:00;102691.59;;;22.07;41.56
46942;BME280;32676;52.630;4.896;2022-08-06T10:28:27;102654.56;;;21.97;42.58
46942;BME280;32676;52.630;4.896;2022-08-06T10:30:55;102594.59;;;21.84;43.25
46942;BME280;32676;52.630;4.896;2022-08-06T10:33:23;102625.38;;;21.93;43.98
46942;BME280;32676;52.630;4.896;2022-08-06T10:35:57;102669.38;;;22.04;43.77
46942;BME280;32676;52.630;4.896;2022-08-06T10:38:26;102713.56;;;22.13;43.59
46942;BME280;32676;52.630;4.896;2022-08-06T10:40:53;102737.25;;;22.21;43.88
46942;BME280;32676;52.630;4.896;2022-08-06T10:43:20;102727.59;;;22.18;43.14
46942;BME280;32676;52.630;4.896;2022-08-06T10:45:48;102699.47;;;22.10;42.65
46942;BME280;32676;52.630;4.896;2022-08-06T10:48:17;102720.47;;;22.17;42.25
46942;BME280;32676;52.630;4.896;2022-08-06T10:50:44;102756.72;;;22.24;42.11
46942;BME280;32676;52.630;4.896;2022-08-06T10:53:11;102826.41;;;22.42;42.72
46942;BME280;32676;52.630;4.896;2022-08-06T10:55:37;102831.00;;;22.40;42.15
46942;BME280;32676;52.630;4.896;2022-08-06T10:58:04;102830.66;;;22.46;41.93
46942;BME280;32676;52.630;4.896;2022-08-06T11:00:32;102809.47;;;22.41;43.13
46942;BME280;32676;52.630;4.896;2022-08-06T11:03:06;102795.31;;;22.39;43.12
46942;BME280;32676;52.630;4.896;2022-08-06T11:05:41;102814.66;;;22.45;42.93
46942;BME280;32676;52.630;4.896;2022-08-06T11:08:28;102850.84;;;22.53;43.13
46942;BME280;32676;52.630;4.896;2022-08-06T11:11:11;102887.91;;;22.62;41.90
46942;BME280;32676;52.630;4.896;2022-08-06T11:13:51;102876.38;;;22.60;41.30
46942;BME280;32676;52.630;4.896;2022-08-06T11:16:22;102896.91;;;22.61;40.95
46942;BME280;32676;52.630;4.896;2022-08-06T11:19:04;102937.41;;;22.73;41.40
46942;BME280;32676;52.630;4.896;2022-08-06T11:21:39;102953.19;;;22.79;40.91
46942;BME280;32676;52.630;4.896;2022-08-06T11:24:07;102852.59;;;22.54;41.53
46942;BME280;32676;52.630;4.896;2022-08-06T11:26:36;102779.13;;;22.41;41.90
46942;BME280;32676;52.630;4.896;2022-08-06T11:29:03;102728.88;;;22.29;42.75
46942;BME280;32676;52.630;4.896;2022-08-06T11:31:37;102719.19;;;22.26;41.97
46942;BME280;32676;52.630;4.896;2022-08-06T11:34:08;102723.53;;;22.29;41.33
46942;BME280;32676;52.630;4.896;2022-08-06T11:36:48;102723.78;;;22.22;41.60
46942;BME280;32676;52.630;4.896;2022-08-06T11:39:16;102737.72;;;22.31;41.95
46942;BME280;32676;52.630;4.896;2022-08-06T11:41:53;102758.81;;;22.37;42.37
46942;BME280;32676;52.630;4.896;2022-08-06T11:44:21;102771.09;;;22.41;42.11
46942;BME280;32676;52.630;4.896;2022-08-06T11:46:48;102731.38;;;22.32;42.19
46942;BME280;32676;52.630;4.896;2022-08-06T11:49:23;102687.19;;;22.23;45.07
46942;BME280;32676;52.630;4.896;2022-08-06T11:51:53;102653.66;;;22.16;45.25
46942;BME280;32676;52.630;4.896;2022-08-06T11:54:21;102710.22;;;22.27;46.52
46942;BME280;32676;52.630;4.896;2022-08-06T11:57:19;102756.91;;;22.39;45.03
46942;BME280;32676;52.630;4.896;2022-08-06T12:00:02;102793.94;;;22.48;45.39
46942;BME280;32676;52.630;4.896;2022-08-06T12:02:48;102741.03;;;22.36;43.04
46942;BME280;32676;52.630;4.896;2022-08-06T12:05:32;102719.88;;;22.30;43.03
46942;BME280;32676;52.630;4.896;2022-08-06T12:08:20;102670.41;;;22.19;42.29
46942;BME280;32676;52.630;4.896;2022-08-06T12:11:22;102676.47;;;22.23;42.08
46942;BME280;32676;52.630;4.896;2022-08-06T12:13:49;102675.59;;;22.22;41.68
46942;BME280;32676;52.630;4.896;2022-08-06T12:16:30;102719.75;;;22.33;41.92
46942;BME280;32676;52.630;4.896;2022-08-06T12:18:57;102767.63;;;22.39;41.87
46942;BME280;32676;52.630;4.896;2022-08-06T12:21:24;102816.78;;;22.55;39.54
46942;BME280;32676;52.630;4.896;2022-08-06T12:23:52;102770.78;;;22.47;40.06
46942;BME280;32676;52.630;4.896;2022-08-06T12:26:20;102767.34;;;22.45;40.94
46942;BME280;32676;52.630;4.896;2022-08-06T12:28:47;102818.53;;;22.56;40.72
46942;BME280;32676;52.630;4.896;2022-08-06T12:31:27;102886.41;;;22.74;41.12
46942;BME280;32676;52.630;4.896;2022-08-06T12:33:54;102971.97;;;22.96;41.51
46942;BME280;32676;52.630;4.896;2022-08-06T12:36:25;103060.38;;;23.17;42.11
46942;BME280;32676;52.630;4.896;2022-08-06T12:38:55;103150.66;;;23.35;41.79
46942;BME280;32676;52.630;4.896;2022-08-06T12:41:22;103189.53;;;23.46;41.96
46942;BME280;32676;52.630;4.896;2022-08-06T12:43:48;103194.88;;;23.46;41.31
46942;BME280;32676;52.630;4.896;2022-08-06T12:46:15;103223.94;;;23.55;41.38
46942;BME280;32676;52.630;4.896;2022-08-06T12:48:45;103226.63;;;23.55;41.36
46942;BME280;32676;52.630;4.896;2022-08-06T12:51:12;103202.00;;;23.47;41.13
46942;BME280;32676;52.630;4.896;2022-08-06T12:53:40;103127.47;;;23.34;40.75
46942;BME280;32676;52.630;4.896;2022-08-06T12:56:10;103040.94;;;23.12;40.54
46942;BME280;32676;52.630;4.896;2022-08-06T12:58:38;103004.50;;;23.08;41.33
46942;BME280;32676;52.630;4.896;2022-08-06T13:01:06;103031.00;;;23.14;41.46
46942;BME280;32676;52.630;4.896;2022-08-06T13:03:35;103081.38;;;23.26;42.18
46942;BME280;32676;52.630;4.896;2022-08-06T13:06:06;103139.06;;;23.35;41.79
46942;BME280;32676;52.630;4.896;2022-08-06T13:08:33;103168.06;;;23.46;41.39
46942;BME280;32676;52.630;4.896;2022-08-06T13:11:00;103171.53;;;23.48;40.70